sensor_id;sensor_type;location;lat;lon;timestamp;pressure;altitude;pressure_sealevel;temperature;humidity
64835;BME280;51293;59.296;18.006;2022-09-27T00:01:49;99673.34;;;9.44;100.00
64835;BME280;51293;59.296;18.006;2022-09-27T00:04:15;99667.69;;;9.46;100.00
64835;BME280;51293;59.296;18.006;2022-09-27T00:06:40;99657.44;;;9.48;100.00
64835;BME280;51293;59.296;18.006;2022-09-27T00:09:06;99659.63;;;9.51;100.00
64835;BME280;51293;59.296;18.006;2022-09-27T00:11:34;99657.19;;;9.49;100.00
64835;BME280;51293;59.296;18.006;2022-09-27T00:14:00;99657.19;;;9.49;100.00
64835;BME280;51293;59.296;18.006;2022-09-27T00:16:29;99659.88;;;9.49;100.00
64835;BME280;51293;59.296;18.006;2022-09-27T00:18:59;99665.28;;;9.49;100.00
64835;BME280;51293;59.296;18.006;2022-09-27T00:21:25;99666.38;;;9.48;100.00
64835;BME280;51293;59.296;18.006;2022-09-27T00:23:50;99662.59;;;9.49;100.00
64835;BME280;51293;59.296;18.006;2022-09-27T00:26:16;99672.84;;;9.47;100.00
64835;BME280;51293;59.296;18.006;2022-09-27T00:28:41;99669.31;;;9.47;100.00
64835;BME280;51293;59.296;18.006;2022-09-27T00:31:21;99678.75;;;9.44;100.00
64835;BME280;51293;59.296;18.006;2022-09-27T00:33:48;99677.94;;;9.44;100.00
64835;BME280;51293;59.296;18.006;2022-09-27T00:36:13;99669.59;;;9.45;100.00
64835;BME280;51293;59.296;18.006;2022-09-27T00:38:40;99680.38;;;9.45;100.00
64835;BME280;51293;59.296;18.006;2022-09-27T00:41:05;99683.34;;;9.44;100.00
64835;BME280;51293;59.296;18.006;2022-09-27T00:43:52;99682.53;;;9.43;100.00
64835;BME280;51293;59.296;18.006;2022-09-27T00:46:24;99681.94;;;9.41;100.00
64835;BME280;51293;59.296;18.006;2022-09-27T00:49:41;99683.00;;;9.40;100.00
64835;BME280;51293;59.296;18.006;2022-09-27T00:51:49;99680.56;;;9.39;100.00
64835;BME280;51293;59.296;18.006;2022-09-27T00:54:18;99690.00;;;9.36;100.00
64835;BME280;51293;59.296;18.006;2022-09-27T00:56:45;99681.06;;;9.36;100.00
64835;BME280;51293;59.296;18.006;2022-09-27T00:59:26;99689.41;;;9.34;100.00
64835;BME280;51293;59.296;18.006;2022-09-27T01:01:53;99680.72;;;9.32;100.00
64835;BME280;51293;59.296;18.006;2022-09-27T01:04:26;99688.00;;;9.32;100.00
64835;BME280;51293;59.296;18.006;2022-09-27T01:06:52;99693.41;;;9.32;100.00
64835;BME280;51293;59.296;18.006;2022-09-27T01:09:19;99700.47;;;9.33;100.00
64835;BME280;51293;59.296;18.006;2022-09-27T01:14:50;99701.03;;;9.35;100.00
64835;BME280;51293;59.296;18.006;2022-09-27T01:25:53;99687.84;;;9.38;100.00
64835;BME280;51293;59.296;18.006;2022-09-27T01:34:05;99674.75;;;9.30;100.00
64835;BME280;51293;59.296;18.006;2022-09-27T01:44:34;99687.63;;;9.23;100.00
64835;BME280;51293;59.296;18.006;2022-09-27T01:47:11;99689.50;;;9.22;100.00
64835;BME280;51293;59.296;18.006;2022-09-27T01:49:48;99694.59;;;9.19;100.00
64835;BME280;51293;59.296;18.006;2022-09-27T01:52:21;99696.69;;;9.17;100.00
64835;BME280;51293;59.296;18.006;2022-09-27T01:54:52;99702.03;;;9.12;100.00
64835;BME280;51293;59.296;18.006;2022-09-27T01:57:23;99701.69;;;9.08;100.00
64835;BME280;51293;59.296;18.006;2022-09-27T02:00:02;99698.94;;;9.03;100.00
64835;BME280;51293;59.296;18.006;2022-09-27T02:02:30;99699.16;;;9.01;100.00
64835;BME280;51293;59.296;18.006;2022-09-27T02:05:00;99698.28;;;8.96;100.00
64835;BME280;51293;59.296;18.006;2022-09-27T02:07:31;99698.75;;;8.93;100.00
64835;BME280;51293;59.296;18.006;2022-09-27T02:10:02;99698.19;;;8.91;100.00
64835;BME280;51293;59.296;18.006;2022-09-27T02:12:37;99707.59;;;8.88;100.00
64835;BME280;51293;59.296;18.006;2022-09-27T02:15:07;99707.84;;;8.87;100.00
64835;BME280;51293;59.296;18.006;2022-09-27T02:17:43;99710.53;;;8.87;100.00
64835;BME280;51293;59.296;18.006;2022-09-27T02:20:23;99709.13;;;8.84;100.00
64835;BME280;51293;59.296;18.006;2022-09-27T02:23:18;99712.91;;;8.83;100.00
64835;BME280;51293;59.296;18.006;2022-09-27T02:26:00;99711.84;;;8.84;100.00
64835;BME280;51293;59.296;18.006;2022-09-27T02:28:31;99715.94;;;8.87;100.00
64835;BME280;51293;59.296;18.006;2022-09-27T02:30:58;99716.75;;;8.87;100.00
64835;BME280;51293;59.296;18.006;2022-09-27T02:33:37;99713.81;;;8.89;100.00
64835;BME280;51293;59.296;18.006;2022-09-27T02:36:06;99710.63;;;8.92;100.00
64835;BME280;51293;59.296;18.006;2022-09-27T02:38:33;99711.22;;;8.94;100.00
64835;BME280;51293;59.296;18.006;2022-09-27T02:40:58;99706.63;;;8.94;100.00
64835;BME280;51293;59.296;18.006;2022-09-27T02:43:27;99710.38;;;8.93;100.00
64835;BME280;51293;59.296;18.006;2022-09-27T02:49:09;99711.44;;;8.92;100.00
64835;BME280;51293;59.296;18.006;2022-09-27T02:54:52;99712.50;;;8.91;100.00
64835;BME280;51293;59.296;18.006;2022-09-27T03:00:06;99712.50;;;8.91;100.00
64835;BME280;51293;59.296;18.006;2022-09-27T03:05:24;99713.91;;;8.94;100.00
64835;BME280;51293;59.296;18.006;2022-09-27T03:07:50;99708.25;;;8.95;100.00
64835;BME280;51293;59.296;18.006;2022-09-27T03:10:22;99711.53;;;8.97;100.00
64835;BME280;51293;59.296;18.006;2022-09-27T03:12:48;99707.75;;;8.98;100.00
64835;BME280;51293;59.296;18.006;2022-09-27T03:15:15;99711.63;;;9.03;100.00
64835;BME280;51293;59.296;18.006;2022-09-27T03:17:40;99714.06;;;9.04;100.00
64835;BME280;51293;59.296;18.006;2022-09-27T03:20:06;99711.94;;;9.06;100.00
64835;BME280;51293;59.296;18.006;2022-09-27T03:22:33;99711.69;;;9.08;100.00
64835;BME280;51293;59.296;18.006;2022-09-27T03:24:58;99710.63;;;9.09;100.00
64835;BME280;51293;59.296;18.006;2022-09-27T03:27:24;99716.94;;;9.14;100.00
64835;BME280;51293;59.296;18.006;2022-09-27T03:29:49;99713.16;;;9.15;100.00
64835;BME280;51293;59.296;18.006;2022-09-27T03:32:15;99716.78;;;9.21;100.00
64835;BME280;51293;59.296;18.006;2022-09-27T03:34:40;99720.84;;;9.23;100.00
64835;BME280;51293;59.296;18.006;2022-09-27T03:37:05;99724.13;;;9.25;100.00
64835;BME280;51293;59.296;18.006;2022-09-27T03:39:32;99723.91;;;9.27;100.00
64835;BME280;51293;59.296;18.006;2022-09-27T03:41:57;99727.16;;;9.29;100.00
64835;BME280;51293;59.296;18.006;2022-09-27T03:44:22;99723.16;;;9.32;100.00
64835;BME280;51293;59.296;18.006;2022-09-27T03:46:48;99727.22;;;9.34;100.00
64835;BME280;51293;59.296;18.006;2022-09-27T03:49:13;99720.78;;;9.35;100.00
64835;BME280;51293;59.296;18.006;2022-09-27T03:51:39;99723.50;;;9.35;100.00
64835;BME280;51293;59.296;18.006;2022-09-27T03:54:05;99721.25;;;9.32;100.00
64835;BME280;51293;59.296;18.006;2022-09-27T03:56:31;99713.41;;;9.31;100.00
64835;BME280;51293;59.296;18.006;2022-09-27T03:58:56;99719.31;;;9.27;100.00
64835;BME280;51293;59.296;18.006;2022-09-27T04:01:21;99715.44;;;9.23;100.00
64835;BME280;51293;59.296;18.006;2022-09-27T04:03:47;99714.06;;;9.21;100.00
64835;BME280;51293;59.296;18.006;2022-09-27T04:06:12;99718.91;;;9.19;100.00
64835;BME280;51293;59.296;18.006;2022-09-27T04:08:39;99717.75;;;9.15;100.00
64835;BME280;51293;59.296;18.006;2022-09-27T04:11:04;99721.78;;;9.12;100.00
64835;BME280;51293;59.296;18.006;2022-09-27T04:13:29;99721.22;;;9.10;100.00
64835;BME280;51293;59.296;18.006;2022-09-27T04:15:55;99725.19;;;9.08;100.00
64835;BME280;51293;59.296;18.006;2022-09-27T04:18:20;99717.03;;;9.03;100.00
64835;BME280;51293;59.296;18.006;2022-09-27T04:20:46;99724.88;;;9.04;100.00
64835;BME280;51293;59.296;18.006;2022-09-27T04:23:11;99730.44;;;8.97;100.00
64835;BME280;51293;59.296;18.006;2022-09-27T04:25:37;99733.84;;;8.93;100.00
64835;BME280;51293;59.296;18.006;2022-09-27T04:28:04;99732.47;;;8.90;100.00
64835;BME280;51293;59.296;18.006;2022-09-27T04:30:30;99732.47;;;8.90;100.00
64835;BME280;51293;59.296;18.006;2022-09-27T04:32:56;99727.06;;;8.90;100.00
64835;BME280;51293;59.296;18.006;2022-09-27T04:35:21;99727.06;;;8.90;100.00
64835;BME280;51293;59.296;18.006;2022-09-27T04:38:05;99731.41;;;8.91;100.00
64835;BME280;51293;59.296;18.006;2022-09-27T04:40:34;99731.41;;;8.91;100.00
64835;BME280;51293;59.296;18.006;2022-09-27T04:43:00;99728.38;;;8.88;100.00
64835;BME280;51293;59.296;18.006;2022-09-27T04:45:26;99726.75;;;8.87;100.00
64835;BME280;51293;59.296;18.006;2022-09-27T04:47:51;99728.84;;;8.85;100.00
64835;BME280;51293;59.296;18.006;2022-09-27T04:50:17;99730.72;;;8.84;100.00
64835;BME280;51293;59.296;18.006;2022-09-27T04:52:43;99735.56;;;8.82;100.00
64835;BME280;51293;59.296;18.006;2022-09-27T04:55:09;99734.50;;;8.83;100.00
64835;BME280;51293;59.296;18.006;2022-09-27T04:57:35;99733.94;;;8.81;100.00
64835;BME280;51293;59.296;18.006;2022-09-27T05:00:02;99742.84;;;8.82;100.00
64835;BME280;51293;59.296;18.006;2022-09-27T05:02:27;99746.88;;;8.79;100.00
64835;BME280;51293;59.296;18.006;2022-09-27T05:04:53;99750.13;;;8.81;100.00
64835;BME280;51293;59.296;18.006;2022-09-27T05:07:24;99745.53;;;8.82;100.00
64835;BME280;51293;59.296;18.006;2022-09-27T05:09:49;99746.94;;;8.84;100.00
64835;BME280;51293;59.296;18.006;2022-09-27T05:12:15;99750.81;;;8.88;100.00
64835;BME280;51293;59.296;18.006;2022-09-27T05:14:41;99747.59;;;8.91;100.00
64835;BME280;51293;59.296;18.006;2022-09-27T05:17:06;99754.41;;;8.94;100.00
64835;BME280;51293;59.296;18.006;2022-09-27T05:19:32;99747.19;;;8.99;100.00
64835;BME280;51293;59.296;18.006;2022-09-27T05:21:58;99742.16;;;9.03;100.00
64835;BME280;51293;59.296;18.006;2022-09-27T05:24:23;99743.38;;;9.12;100.00
64835;BME280;51293;59.296;18.006;2022-09-27T05:26:49;99744.50;;;9.16;100.00
64835;BME280;51293;59.296;18.006;2022-09-27T05:29:15;99741.81;;;9.16;100.00
64835;BME280;51293;59.296;18.006;2022-09-27T05:31:41;99744.88;;;9.20;100.00
64835;BME280;51293;59.296;18.006;2022-09-27T05:34:07;99756.91;;;9.29;100.00
64835;BME280;51293;59.296;18.006;2022-09-27T05:36:33;99746.34;;;9.27;100.00
64835;BME280;51293;59.296;18.006;2022-09-27T05:38:59;99740.19;;;9.32;100.00
64835;BME280;51293;59.296;18.006;2022-09-27T05:41:24;99744.84;;;9.37;100.00
64835;BME280;51293;59.296;18.006;2022-09-27T05:43:50;99742.72;;;9.39;100.00
64835;BME280;51293;59.296;18.006;2022-09-27T05:46:16;99754.44;;;9.44;100.00
64835;BME280;51293;59.296;18.006;2022-09-27T05:48:41;99743.84;;;9.43;100.00
64835;BME280;51293;59.296;18.006;2022-09-27T05:51:07;99750.41;;;9.47;100.00
64835;BME280;51293;59.296;18.006;2022-09-27T05:53:32;99753.94;;;9.47;100.00
64835;BME280;51293;59.296;18.006;2022-09-27T05:56:04;99746.91;;;9.46;100.00
64835;BME280;51293;59.296;18.006;2022-09-27T05:58:30;99753.44;;;9.50;100.00
64835;BME280;51293;59.296;18.006;2022-09-27T06:00:56;99754.84;;;9.53;100.00
64835;BME280;51293;59.296;18.006;2022-09-27T06:03:21;99755.72;;;9.58;100.00
64835;BME280;51293;59.296;18.006;2022-09-27T06:05:47;99759.56;;;9.63;100.00
64835;BME280;51293;59.296;18.006;2022-09-27T06:08:13;99761.78;;;9.66;100.00
64835;BME280;51293;59.296;18.006;2022-09-27T06:10:39;99762.94;;;9.70;100.00
64835;BME280;51293;59.296;18.006;2022-09-27T06:13:13;99769.47;;;9.74;100.00
64835;BME280;51293;59.296;18.006;2022-09-27T06:15:40;99761.44;;;9.79;100.00
64835;BME280;51293;59.296;18.006;2022-09-27T06:18:11;99768.47;;;9.80;100.00
64835;BME280;51293;59.296;18.006;2022-09-27T06:20:38;99771.25;;;9.85;100.00
64835;BME280;51293;59.296;18.006;2022-09-27T06:25:37;99779.44;;;9.90;100.00
64835;BME280;51293;59.296;18.006;2022-09-27T06:28:03;99786.31;;;9.98;100.00
64835;BME280;51293;59.296;18.006;2022-09-27T06:30:29;99787.88;;;9.94;100.00
64835;BME280;51293;59.296;18.006;2022-09-27T06:33:00;99782.22;;;9.95;100.00
64835;BME280;51293;59.296;18.006;2022-09-27T06:35:27;99787.94;;;9.99;100.00
64835;BME280;51293;59.296;18.006;2022-09-27T06:37:53;99784.97;;;10.00;100.00
64835;BME280;51293;59.296;18.006;2022-09-27T06:40:19;99781.78;;;10.03;100.00
64835;BME280;51293;59.296;18.006;2022-09-27T06:42:44;99788.59;;;10.06;100.00
64835;BME280;51293;59.296;18.006;2022-09-27T06:45:11;99786.22;;;10.09;100.00
64835;BME280;51293;59.296;18.006;2022-09-27T06:47:37;99790.84;;;10.14;100.00
64835;BME280;51293;59.296;18.006;2022-09-27T06:50:04;99789.03;;;10.20;100.00
64835;BME280;51293;59.296;18.006;2022-09-27T06:52:30;99790.75;;;10.26;100.00
64835;BME280;51293;59.296;18.006;2022-09-27T06:54:56;99794.91;;;10.33;100.00
64835;BME280;51293;59.296;18.006;2022-09-27T06:57:21;99801.47;;;10.37;100.00
64835;BME280;51293;59.296;18.006;2022-09-27T07:00:06;99796.69;;;10.45;100.00
64835;BME280;51293;59.296;18.006;2022-09-27T07:02:55;99800.06;;;10.57;100.00
64835;BME280;51293;59.296;18.006;2022-09-27T07:05:28;99803.97;;;10.66;100.00
64835;BME280;51293;59.296;18.006;2022-09-27T07:07:57;99800.00;;;10.74;100.00
64835;BME280;51293;59.296;18.006;2022-09-27T07:10:24;99804.69;;;10.83;100.00
64835;BME280;51293;59.296;18.006;2022-09-27T07:12:50;99806.66;;;10.88;100.00
64835;BME280;51293;59.296;18.006;2022-09-27T07:15:17;99805.66;;;10.94;100.00
64835;BME280;51293;59.296;18.006;2022-09-27T07:17:42;99802.16;;;10.98;100.00
64835;BME280;51293;59.296;18.006;2022-09-27T07:20:08;99805.75;;;11.04;99.66
64835;BME280;51293;59.296;18.006;2022-09-27T07:22:41;99802.50;;;11.07;99.80
64835;BME280;51293;59.296;18.006;2022-09-27T07:25:10;99806.91;;;11.13;100.00
64835;BME280;51293;59.296;18.006;2022-09-27T07:27:36;99813.22;;;11.19;99.44
64835;BME280;51293;59.296;18.006;2022-09-27T07:30:02;99812.41;;;11.23;99.08
64835;BME280;51293;59.296;18.006;2022-09-27T07:32:28;99818.97;;;11.28;98.44
64835;BME280;51293;59.296;18.006;2022-09-27T07:34:53;99818.78;;;11.34;98.02
64835;BME280;51293;59.296;18.006;2022-09-27T07:37:18;99808.22;;;11.38;97.17
64835;BME280;51293;59.296;18.006;2022-09-27T07:39:44;99811.22;;;11.41;97.61
64835;BME280;51293;59.296;18.006;2022-09-27T07:42:09;99802.31;;;11.46;96.93
64835;BME280;51293;59.296;18.006;2022-09-27T07:44:34;99808.63;;;11.51;95.49
64835;BME280;51293;59.296;18.006;2022-09-27T07:47:00;99810.28;;;11.58;95.87
64835;BME280;51293;59.296;18.006;2022-09-27T07:49:25;99808.38;;;11.58;94.91
64835;BME280;51293;59.296;18.006;2022-09-27T07:51:51;99815.75;;;11.63;95.46
64835;BME280;51293;59.296;18.006;2022-09-27T07:54:16;99816.81;;;11.62;94.35
64835;BME280;51293;59.296;18.006;2022-09-27T07:56:44;99817.13;;;11.65;94.59
64835;BME280;51293;59.296;18.006;2022-09-27T07:59:09;99816.63;;;11.68;94.26
64835;BME280;51293;59.296;18.006;2022-09-27T08:01:34;99823.66;;;11.69;94.83
64835;BME280;51293;59.296;18.006;2022-09-27T08:04:00;99825.59;;;11.74;95.17
64835;BME280;51293;59.296;18.006;2022-09-27T08:06:25;99830.78;;;11.75;95.05
64835;BME280;51293;59.296;18.006;2022-09-27T08:08:51;99828.34;;;11.79;95.12
64835;BME280;51293;59.296;18.006;2022-09-27T08:11:17;99830.81;;;11.80;95.40
64835;BME280;51293;59.296;18.006;2022-09-27T08:13:44;99834.13;;;11.88;95.85
64835;BME280;51293;59.296;18.006;2022-09-27T08:16:10;99837.66;;;11.88;94.74
64835;BME280;51293;59.296;18.006;2022-09-27T08:18:36;99835.75;;;11.84;94.23
64835;BME280;51293;59.296;18.006;2022-09-27T08:21:02;99832.19;;;11.83;94.70
64835;BME280;51293;59.296;18.006;2022-09-27T08:23:29;99836.56;;;11.84;95.15
64835;BME280;51293;59.296;18.006;2022-09-27T08:25:55;99826.81;;;11.88;94.52
64835;BME280;51293;59.296;18.006;2022-09-27T08:28:25;99823.56;;;11.86;95.33
64835;BME280;51293;59.296;18.006;2022-09-27T08:30:51;99828.16;;;11.86;95.09
64835;BME280;51293;59.296;18.006;2022-09-27T08:33:17;99828.72;;;11.88;95.72
64835;BME280;51293;59.296;18.006;2022-09-27T08:35:42;99828.50;;;11.94;94.77
64835;BME280;51293;59.296;18.006;2022-09-27T08:38:09;99835.88;;;12.04;93.70
64835;BME280;51293;59.296;18.006;2022-09-27T08:40:51;99827.47;;;12.05;93.55
64835;BME280;51293;59.296;18.006;2022-09-27T08:48:49;99842.19;;;12.15;93.17
64835;BME280;51293;59.296;18.006;2022-09-27T08:51:20;99834.66;;;12.27;92.47
64835;BME280;51293;59.296;18.006;2022-09-27T08:53:54;99835.47;;;12.27;91.51
64835;BME280;51293;59.296;18.006;2022-09-27T08:56:21;99834.94;;;12.30;92.22
64835;BME280;51293;59.296;18.006;2022-09-27T08:58:57;99844.22;;;12.34;91.25
64835;BME280;51293;59.296;18.006;2022-09-27T09:01:25;99844.53;;;12.43;90.72
64835;BME280;51293;59.296;18.006;2022-09-27T09:03:53;99845.91;;;12.51;91.25
64835;BME280;51293;59.296;18.006;2022-09-27T09:06:27;99850.25;;;12.52;91.87
64835;BME280;51293;59.296;18.006;2022-09-27T09:09:23;99848.06;;;12.49;90.92
64835;BME280;51293;59.296;18.006;2022-09-27T09:12:16;99861.38;;;12.45;91.19
64835;BME280;51293;59.296;18.006;2022-09-27T09:15:16;99867.59;;;12.46;91.64
64835;BME280;51293;59.296;18.006;2022-09-27T09:26:24;99854.56;;;12.48;92.37
64835;BME280;51293;59.296;18.006;2022-09-27T09:31:40;99839.66;;;12.55;91.04
64835;BME280;51293;59.296;18.006;2022-09-27T09:34:39;99851.09;;;12.57;89.81
64835;BME280;51293;59.296;18.006;2022-09-27T09:37:23;99854.66;;;12.63;88.69
64835;BME280;51293;59.296;18.006;2022-09-27T09:39:59;99848.38;;;12.57;89.63
64835;BME280;51293;59.296;18.006;2022-09-27T09:42:32;99842.16;;;12.62;89.59
64835;BME280;51293;59.296;18.006;2022-09-27T09:45:11;99842.22;;;12.77;89.89
64835;BME280;51293;59.296;18.006;2022-09-27T09:47:44;99861.16;;;12.62;89.97
64835;BME280;51293;59.296;18.006;2022-09-27T09:50:19;99863.31;;;12.55;90.69
64835;BME280;51293;59.296;18.006;2022-09-27T09:52:49;99858.09;;;12.43;90.97
64835;BME280;51293;59.296;18.006;2022-09-27T09:55:22;99855.63;;;12.36;91.80
64835;BME280;51293;59.296;18.006;2022-09-27T09:57:58;99852.63;;;12.38;91.67
64835;BME280;51293;59.296;18.006;2022-09-27T10:00:23;99852.28;;;12.24;92.11
64835;BME280;51293;59.296;18.006;2022-09-27T10:02:51;99859.81;;;12.12;92.77
64835;BME280;51293;59.296;18.006;2022-09-27T10:05:19;99856.19;;;11.96;95.28
64835;BME280;51293;59.296;18.006;2022-09-27T10:07:46;99844.72;;;11.89;96.09
64835;BME280;51293;59.296;18.006;2022-09-27T10:10:16;99848.22;;;11.85;96.74
64835;BME280;51293;59.296;18.006;2022-09-27T10:12:43;99852.47;;;11.75;98.31
64835;BME280;51293;59.296;18.006;2022-09-27T10:15:13;99851.59;;;11.70;99.08
64835;BME280;51293;59.296;18.006;2022-09-27T10:17:44;99855.06;;;11.60;98.56
64835;BME280;51293;59.296;18.006;2022-09-27T10:22:48;99851.53;;;11.60;99.68
64835;BME280;51293;59.296;18.006;2022-09-27T10:25:19;99842.81;;;11.58;99.84
64835;BME280;51293;59.296;18.006;2022-09-27T10:27:48;99847.44;;;11.57;100.00
64835;BME280;51293;59.296;18.006;2022-09-27T10:30:21;99853.44;;;11.64;100.00
64835;BME280;51293;59.296;18.006;2022-09-27T10:32:51;99851.41;;;11.76;100.00
64835;BME280;51293;59.296;18.006;2022-09-27T10:37:53;99846.25;;;12.12;99.89
64835;BME280;51293;59.296;18.006;2022-09-27T10:40:28;99852.91;;;12.36;98.46
64835;BME280;51293;59.296;18.006;2022-09-27T10:42:53;99843.25;;;12.61;98.15
64835;BME280;51293;59.296;18.006;2022-09-27T10:45:32;99838.94;;;12.75;97.08
64835;BME280;51293;59.296;18.006;2022-09-27T10:47:59;99841.16;;;12.83;95.99
64835;BME280;51293;59.296;18.006;2022-09-27T10:50:29;99836.75;;;12.72;96.18
64835;BME280;51293;59.296;18.006;2022-09-27T10:53:15;99844.09;;;12.72;96.72
64835;BME280;51293;59.296;18.006;2022-09-27T10:55:47;99841.38;;;12.72;96.40
64835;BME280;51293;59.296;18.006;2022-09-27T10:58:27;99837.25;;;12.64;97.77
64835;BME280;51293;59.296;18.006;2022-09-27T11:01:00;99841.06;;;12.58;98.77
64835;BME280;51293;59.296;18.006;2022-09-27T11:03:29;99848.63;;;12.56;99.09
64835;BME280;51293;59.296;18.006;2022-09-27T11:05:56;99847.81;;;12.55;99.16
64835;BME280;51293;59.296;18.006;2022-09-27T11:08:32;99841.31;;;12.51;99.89
64835;BME280;51293;59.296;18.006;2022-09-27T11:13:29;99834.78;;;12.52;100.00
64835;BME280;51293;59.296;18.006;2022-09-27T11:16:31;99834.53;;;12.64;100.00
64835;BME280;51293;59.296;18.006;2022-09-27T11:19:33;99841.66;;;12.75;100.00
64835;BME280;51293;59.296;18.006;2022-09-27T11:22:51;99830.28;;;12.83;99.17
64835;BME280;51293;59.296;18.006;2022-09-27T11:41:54;99838.75;;;13.07;97.97
64835;BME280;51293;59.296;18.006;2022-09-27T11:44:42;99837.69;;;13.18;96.67
64835;BME280;51293;59.296;18.006;2022-09-27T11:47:17;99836.66;;;13.30;96.62
64835;BME280;51293;59.296;18.006;2022-09-27T11:55:33;99841.56;;;13.78;91.78
64835;BME280;51293;59.296;18.006;2022-09-27T12:00:49;99846.47;;;13.87;92.25
64835;BME280;51293;59.296;18.006;2022-09-27T12:06:05;99845.59;;;14.22;89.03
64835;BME280;51293;59.296;18.006;2022-09-27T12:08:34;99843.09;;;14.36;89.37
64835;BME280;51293;59.296;18.006;2022-09-27T12:11:31;99849.63;;;14.40;86.89
64835;BME280;51293;59.296;18.006;2022-09-27T12:14:23;99839.56;;;14.45;87.86
64835;BME280;51293;59.296;18.006;2022-09-27T12:16:55;99842.00;;;14.37;86.82
64835;BME280;51293;59.296;18.006;2022-09-27T12:19:24;99848.81;;;14.49;86.76
64835;BME280;51293;59.296;18.006;2022-09-27T12:21:55;99852.63;;;14.38;85.20
64835;BME280;51293;59.296;18.006;2022-09-27T12:24:22;99844.78;;;14.31;85.22
64835;BME280;51293;59.296;18.006;2022-09-27T12:26:54;99844.47;;;14.28;86.43
64835;BME280;51293;59.296;18.006;2022-09-27T12:29:27;99837.97;;;14.14;87.15
64835;BME280;51293;59.296;18.006;2022-09-27T12:34:52;99845.91;;;14.00;86.86
64835;BME280;51293;59.296;18.006;2022-09-27T12:37:26;99844.81;;;13.96;86.69
64835;BME280;51293;59.296;18.006;2022-09-27T12:40:04;99844.00;;;13.95;88.67
64835;BME280;51293;59.296;18.006;2022-09-27T12:42:39;99844.84;;;13.91;89.15
64835;BME280;51293;59.296;18.006;2022-09-27T12:45:11;99846.19;;;13.93;88.57
64835;BME280;51293;59.296;18.006;2022-09-27T12:47:57;99855.44;;;13.87;88.61
64835;BME280;51293;59.296;18.006;2022-09-27T12:50:32;99849.75;;;13.84;90.27
64835;BME280;51293;59.296;18.006;2022-09-27T12:53:07;99850.56;;;13.84;89.79
64835;BME280;51293;59.296;18.006;2022-09-27T12:55:58;99851.94;;;13.66;89.96
64835;BME280;51293;59.296;18.006;2022-09-27T12:58:30;99858.47;;;13.65;90.08
64835;BME280;51293;59.296;18.006;2022-09-27T13:04:03;99850.00;;;13.72;89.56
64835;BME280;51293;59.296;18.006;2022-09-27T13:06:50;99851.09;;;13.81;89.52
64835;BME280;51293;59.296;18.006;2022-09-27T13:12:13;99851.59;;;14.14;88.98
64835;BME280;51293;59.296;18.006;2022-09-27T13:15:04;99852.41;;;14.19;87.90
64835;BME280;51293;59.296;18.006;2022-09-27T13:22:48;99862.19;;;14.20;86.10
64835;BME280;51293;59.296;18.006;2022-09-27T13:31:12;99863.50;;;14.53;85.25
64835;BME280;51293;59.296;18.006;2022-09-27T13:33:51;99854.09;;;14.90;84.46
64835;BME280;51293;59.296;18.006;2022-09-27T13:47:32;99864.44;;;15.42;80.46
64835;BME280;51293;59.296;18.006;2022-09-27T13:53:22;99866.06;;;15.38;78.72
64835;BME280;51293;59.296;18.006;2022-09-27T13:55:51;99867.38;;;15.46;77.30
64835;BME280;51293;59.296;18.006;2022-09-27T13:58:32;99870.63;;;15.53;77.61
64835;BME280;51293;59.296;18.006;2022-09-27T14:01:02;99869.50;;;15.59;77.47
64835;BME280;51293;59.296;18.006;2022-09-27T14:03:36;99869.97;;;15.71;78.87
64835;BME280;51293;59.296;18.006;2022-09-27T14:06:05;99872.22;;;15.64;78.87
64835;BME280;51293;59.296;18.006;2022-09-27T14:08:43;99871.19;;;15.50;78.41
64835;BME280;51293;59.296;18.006;2022-09-27T14:11:12;99872.72;;;15.22;80.33
64835;BME280;51293;59.296;18.006;2022-09-27T14:13:40;99878.19;;;15.22;81.34
64835;BME280;51293;59.296;18.006;2022-09-27T14:16:07;99872.28;;;15.05;81.31
64835;BME280;51293;59.296;18.006;2022-09-27T14:18:42;99878.66;;;14.85;81.14
64835;BME280;51293;59.296;18.006;2022-09-27T14:21:13;99879.53;;;14.75;82.14
64835;BME280;51293;59.296;18.006;2022-09-27T14:23:41;99870.84;;;14.63;82.51
64835;BME280;51293;59.296;18.006;2022-09-27T14:26:23;99880.72;;;14.49;83.36
64835;BME280;51293;59.296;18.006;2022-09-27T14:28:49;99870.59;;;14.39;83.56
64835;BME280;51293;59.296;18.006;2022-09-27T14:31:23;99880.72;;;14.28;84.01
64835;BME280;51293;59.296;18.006;2022-09-27T14:33:49;99882.66;;;14.18;84.71
64835;BME280;51293;59.296;18.006;2022-09-27T14:36:30;99891.34;;;14.04;84.57
64835;BME280;51293;59.296;18.006;2022-09-27T14:39:33;99885.13;;;13.99;84.71
64835;BME280;51293;59.296;18.006;2022-09-27T14:42:04;99877.22;;;13.87;84.80
64835;BME280;51293;59.296;18.006;2022-09-27T14:44:31;99889.50;;;13.74;84.32
64835;BME280;51293;59.296;18.006;2022-09-27T14:49:59;99898.44;;;13.65;86.55
64835;BME280;51293;59.296;18.006;2022-09-27T14:52:31;99891.63;;;13.62;86.04
64835;BME280;51293;59.296;18.006;2022-09-27T14:55:18;99887.53;;;13.55;86.28
64835;BME280;51293;59.296;18.006;2022-09-27T14:57:51;99895.16;;;13.53;86.66
64835;BME280;51293;59.296;18.006;2022-09-27T15:00:22;99884.84;;;13.49;86.51
64835;BME280;51293;59.296;18.006;2022-09-27T15:02:51;99900.06;;;13.45;86.49
64835;BME280;51293;59.296;18.006;2022-09-27T15:05:22;99903.84;;;13.34;86.95
64835;BME280;51293;59.296;18.006;2022-09-27T15:07:47;99896.22;;;13.31;86.23
64835;BME280;51293;59.296;18.006;2022-09-27T15:10:15;99896.22;;;13.26;87.23
64835;BME280;51293;59.296;18.006;2022-09-27T15:12:43;99890.72;;;13.16;86.46
64835;BME280;51293;59.296;18.006;2022-09-27T15:15:13;99902.13;;;13.13;87.91
64835;BME280;51293;59.296;18.006;2022-09-27T15:17:42;99898.84;;;13.11;88.13